Time;durP1;ratioP1;P1;durP2;ratioP2;P2;SDS_P1;SDS_P2;PMS_P1;PMS_P2;Temp;Humidity;BMP_temperature;BMP_pressure;BME280_temperature;BME280_humidity;BME280_pressure;Samples;Min_cycle;Max_cycle;Signal;HPM_P1;HPM_P2
2024/01/18 00:00:39;;;;;;;49.63;22.17;;;-1.50;99.90;;;;;;5006367;28;20042;-61
2024/01/18 00:03:05;;;;;;;49.28;21.50;;;-1.50;99.90;;;;;;5009721;28;20041;-61
2024/01/18 00:05:31;;;;;;;44.40;20.40;;;-1.60;99.90;;;;;;5011268;28;20034;-61
2024/01/18 00:07:56;;;;;;;49.00;21.67;;;-1.60;99.90;;;;;;5009924;28;20018;-61
2024/01/18 00:10:26;;;;;;;46.55;21.88;;;-1.60;99.90;;;;;;5011048;28;20433;-62
2024/01/18 00:12:53;;;;;;;46.00;21.00;;;-1.70;99.90;;;;;;5011487;28;20018;-62
2024/01/18 00:15:18;;;;;;;48.22;20.42;;;-1.70;99.90;;;;;;5009728;28;20084;-62
2024/01/18 00:17:44;;;;;;;45.15;20.55;;;-1.60;99.90;;;;;;5010756;28;20505;-62
2024/01/18 00:20:10;;;;;;;47.22;19.60;;;-1.60;99.90;;;;;;5011016;28;20022;-61
2024/01/18 00:22:36;;;;;;;37.92;19.10;;;-1.60;99.90;;;;;;5011211;28;20025;-62
2024/01/18 00:25:01;;;;;;;45.50;19.45;;;-1.60;99.90;;;;;;5010880;28;20049;-62
2024/01/18 00:27:27;;;;;;;39.80;18.00;;;-1.60;99.90;;;;;;5011065;28;20544;-62
2024/01/18 00:29:53;;;;;;;42.10;19.75;;;-1.70;99.90;;;;;;5009526;28;20025;-62
2024/01/18 00:32:18;;;;;;;38.80;18.88;;;-1.70;99.90;;;;;;5010924;28;20422;-62
2024/01/18 00:34:44;;;;;;;43.63;19.23;;;-1.70;99.90;;;;;;5009263;28;20033;-62
2024/01/18 00:37:09;;;;;;;46.85;20.40;;;-1.60;99.90;;;;;;5009674;28;20034;-62
2024/01/18 00:39:41;;;;;;;39.00;17.77;;;-1.60;99.90;;;;;;5010965;28;20026;-62
2024/01/18 00:42:07;;;;;;;39.75;17.80;;;-1.60;99.90;;;;;;5010960;28;20033;-62
2024/01/18 00:44:32;;;;;;;39.15;18.15;;;-1.70;99.90;;;;;;5006833;28;20024;-62
2024/01/18 00:46:58;;;;;;;41.17;17.67;;;-1.70;99.90;;;;;;5011185;28;20100;-62
2024/01/18 00:49:24;;;;;;;38.70;17.05;;;-1.70;99.90;;;;;;5009680;28;20026;-63
2024/01/18 00:51:49;;;;;;;43.25;18.75;;;-1.70;99.90;;;;;;5007613;28;20113;-62
2024/01/18 00:54:15;;;;;;;36.22;16.20;;;-1.60;99.90;;;;;;5009198;28;20034;-62
2024/01/18 00:56:40;;;;;;;37.58;18.60;;;-1.70;99.90;;;;;;5005299;28;20366;-62
2024/01/18 00:59:07;;;;;;;40.22;18.52;;;-1.70;99.90;;;;;;5010765;28;20037;-62
2024/01/18 01:01:33;;;;;;;31.95;14.63;;;-1.70;99.90;;;;;;5010279;28;20076;-62
2024/01/18 01:03:59;;;;;;;42.58;18.30;;;-1.70;99.90;;;;;;5008803;28;20105;-62
2024/01/18 01:06:24;;;;;;;40.13;18.95;;;-1.70;99.90;;;;;;5009527;28;20030;-63
2024/01/18 01:08:50;;;;;;;40.70;18.75;;;-1.80;99.90;;;;;;5009410;28;20105;-62
2024/01/18 01:11:17;;;;;;;39.08;19.08;;;-1.90;99.90;;;;;;5009845;28;20030;-62
2024/01/18 01:13:44;;;;;;;49.22;19.63;;;-1.90;99.90;;;;;;5008790;28;20515;-62
2024/01/18 01:16:10;;;;;;;44.45;19.70;;;-2.00;99.90;;;;;;5006752;28;20470;-62
2024/01/18 01:18:36;;;;;;;42.97;19.13;;;-2.00;99.90;;;;;;5009340;28;20073;-63
2024/01/18 01:21:02;;;;;;;40.75;18.55;;;-1.90;99.90;;;;;;5008737;28;20030;-62
2024/01/18 01:23:28;;;;;;;41.45;19.05;;;-1.80;99.90;;;;;;5010342;28;20029;-62
2024/01/18 01:25:53;;;;;;;42.88;19.33;;;-1.80;99.90;;;;;;5010235;28;20473;-62
2024/01/18 01:28:19;;;;;;;42.30;17.90;;;-1.80;99.90;;;;;;5010156;28;20457;-62
2024/01/18 01:30:44;;;;;;;42.38;18.63;;;-1.80;99.90;;;;;;5009692;28;20432;-62
2024/01/18 01:33:10;;;;;;;42.47;18.98;;;-1.70;99.90;;;;;;5008574;28;20353;-62
2024/01/18 01:35:35;;;;;;;39.67;18.83;;;-1.80;99.90;;;;;;5009459;28;20034;-63
2024/01/18 01:38:01;;;;;;;42.55;19.42;;;-1.80;99.90;;;;;;5009942;28;20085;-63
2024/01/18 01:40:27;;;;;;;40.28;19.08;;;-1.80;99.90;;;;;;5008613;28;20025;-62
2024/01/18 01:42:52;;;;;;;40.70;18.67;;;-1.90;99.90;;;;;;5008982;28;20109;-62
2024/01/18 01:45:18;;;;;;;43.05;19.95;;;-1.90;99.90;;;;;;5005827;28;20026;-62
2024/01/18 01:47:43;;;;;;;45.42;18.42;;;-1.90;99.90;;;;;;5010085;28;20034;-63
2024/01/18 01:50:10;;;;;;;40.92;19.90;;;-1.90;99.90;;;;;;5008216;28;20026;-62
2024/01/18 01:52:37;;;;;;;39.95;19.00;;;-2.00;99.90;;;;;;5006912;28;20034;-60
2024/01/18 01:55:06;;;;;;;38.20;18.48;;;-2.10;99.90;;;;;;5005565;28;20080;-59
2024/01/18 01:57:32;;;;;;;43.88;20.08;;;-2.10;99.90;;;;;;5005186;28;20026;-63
2024/01/18 01:59:57;;;;;;;41.30;20.33;;;-2.00;99.90;;;;;;5008348;28;20080;-62
2024/01/18 02:02:23;;;;;;;40.83;18.42;;;-1.90;99.90;;;;;;5008096;28;20100;-62
2024/01/18 02:04:50;;;;;;;43.72;20.52;;;-1.90;99.90;;;;;;5009800;28;20033;-62
2024/01/18 02:07:17;;;;;;;43.00;19.27;;;-2.00;99.90;;;;;;5009789;28;20030;-62
2024/01/18 02:09:43;;;;;;;39.67;18.88;;;-2.00;99.90;;;;;;5008427;28;20018;-62
2024/01/18 02:12:10;;;;;;;44.25;19.92;;;-2.00;99.90;;;;;;5009683;28;20238;-61
2024/01/18 02:14:37;;;;;;;43.88;20.02;;;-2.00;99.90;;;;;;5006920;28;20029;-62
2024/01/18 02:17:04;;;;;;;43.25;20.02;;;-1.90;99.90;;;;;;5008482;28;20833;-62
2024/01/18 02:19:30;;;;;;;43.72;19.75;;;-1.30;99.90;;;;;;5009837;28;20165;-62
2024/01/18 02:21:56;;;;;;;44.85;19.20;;;-2.00;99.90;;;;;;5009511;28;20037;-62
2024/01/18 02:24:42;;;;;;;48.33;20.13;;;-2.10;99.90;;;;;;5009459;28;20381;-62
2024/01/18 02:27:07;;;;;;;40.30;19.83;;;-2.10;99.90;;;;;;5009557;28;20029;-62
2024/01/18 02:29:33;;;;;;;44.53;20.80;;;-2.20;99.90;;;;;;5009708;28;20460;-62
2024/01/18 02:31:58;;;;;;;47.80;20.75;;;-2.20;99.90;;;;;;5011202;28;20034;-62
2024/01/18 02:34:24;;;;;;;51.97;20.48;;;-2.30;99.90;;;;;;5011894;28;20026;-62
2024/01/18 02:36:50;;;;;;;44.33;21.48;;;-2.20;99.90;;;;;;5011675;28;20025;-62
2024/01/18 02:39:16;;;;;;;42.08;19.10;;;-2.10;99.90;;;;;;5011752;28;20037;-62
2024/01/18 02:41:41;;;;;;;42.55;20.00;;;-2.00;99.90;;;;;;5012971;28;20426;-62
2024/01/18 02:44:07;;;;;;;42.92;20.05;;;-1.90;99.90;;;;;;5009410;28;20022;-62
2024/01/18 02:46:33;;;;;;;45.15;21.48;;;-1.90;99.90;;;;;;5010522;28;20026;-62
2024/01/18 02:49:00;;;;;;;42.50;20.20;;;-1.90;99.90;;;;;;5011758;28;20026;-62
2024/01/18 02:51:26;;;;;;;45.10;21.17;;;-1.90;99.90;;;;;;5009358;28;20511;-62
2024/01/18 02:53:51;;;;;;;43.55;19.67;;;-2.00;99.90;;;;;;5005113;28;20156;-62
2024/01/18 02:56:17;;;;;;;44.90;20.90;;;-2.10;99.90;;;;;;5010686;28;20072;-62
2024/01/18 02:58:43;;;;;;;43.22;20.25;;;-2.10;99.90;;;;;;5011372;28;20084;-62
2024/01/18 03:01:09;;;;;;;43.80;19.38;;;-2.20;99.90;;;;;;5012858;28;20056;-62
2024/01/18 03:03:38;;;;;;;43.78;20.20;;;-2.20;99.90;;;;;;5007913;28;20036;-62
2024/01/18 03:06:04;;;;;;;47.67;20.13;;;-2.10;99.90;;;;;;5007729;28;20018;-62
2024/01/18 03:08:29;;;;;;;42.60;20.45;;;-2.20;99.90;;;;;;5012596;28;20539;-62
2024/01/18 03:10:55;;;;;;;48.33;21.00;;;-2.10;99.90;;;;;;5011997;28;20029;-62
2024/01/18 03:13:21;;;;;;;47.05;20.75;;;-2.10;99.90;;;;;;5011741;28;20485;-62
2024/01/18 03:15:46;;;;;;;44.30;20.40;;;-1.90;99.90;;;;;;5011187;28;20405;-62
2024/01/18 03:18:12;;;;;;;44.33;21.25;;;-1.90;99.90;;;;;;5012580;28;20061;-62
2024/01/18 03:20:38;;;;;;;44.60;20.55;;;-1.90;99.90;;;;;;5012883;28;20030;-62
2024/01/18 03:23:04;;;;;;;40.20;19.27;;;-1.90;99.90;;;;;;5013249;28;20025;-62
2024/01/18 03:25:30;;;;;;;40.97;19.67;;;-2.00;99.90;;;;;;5011364;28;20026;-62
2024/01/18 03:27:55;;;;;;;43.45;20.25;;;-2.00;99.90;;;;;;5012381;28;20025;-62
2024/01/18 03:30:21;;;;;;;45.28;20.02;;;-2.00;99.90;;;;;;5012674;28;20123;-62
2024/01/18 03:32:47;;;;;;;44.25;21.15;;;-2.10;99.90;;;;;;5009595;28;20058;-62
2024/01/18 03:35:13;;;;;;;46.08;21.10;;;-2.10;99.90;;;;;;5008562;28;20021;-62
2024/01/18 03:37:38;;;;;;;51.95;22.85;;;-2.00;99.90;;;;;;5013039;28;20017;-61
2024/01/18 03:40:08;;;;;;;49.50;21.02;;;-2.10;99.90;;;;;;5013445;28;20101;-61
2024/01/18 03:42:33;;;;;;;41.58;20.73;;;-2.10;99.90;;;;;;5012782;28;20436;-61
2024/01/18 03:44:59;;;;;;;43.03;20.75;;;-2.10;99.90;;;;;;5011576;28;20030;-61
2024/01/18 03:47:24;;;;;;;45.42;20.92;;;-2.20;99.90;;;;;;5013031;28;20034;-61
2024/01/18 03:49:51;;;;;;;41.95;20.40;;;-2.20;99.90;;;;;;5011424;28;20044;-61
2024/01/18 03:52:16;;;;;;;49.28;21.05;;;-2.20;99.90;;;;;;5006701;28;20048;-61
2024/01/18 03:54:42;;;;;;;50.85;21.52;;;-2.10;99.90;;;;;;5005403;28;20026;-61
2024/01/18 03:57:08;;;;;;;45.40;21.38;;;-2.20;99.90;;;;;;5007495;28;20090;-60
2024/01/18 03:59:33;;;;;;;45.70;21.17;;;-2.10;99.90;;;;;;5012136;28;20026;-61
2024/01/18 04:01:59;;;;;;;45.40;21.25;;;-2.00;99.90;;;;;;5010733;28;20092;-61
2024/01/18 04:04:24;;;;;;;47.17;21.63;;;-1.90;99.90;;;;;;5010132;28;20026;-61
2024/01/18 04:06:50;;;;;;;48.88;22.77;;;-1.90;99.90;;;;;;5011919;28;20022;-61
2024/01/18 04:09:16;;;;;;;44.45;21.65;;;-1.90;99.90;;;;;;5011552;28;20417;-61
2024/01/18 04:11:42;;;;;;;44.13;21.35;;;-2.00;99.90;;;;;;5011576;28;20053;-61
2024/01/18 04:14:08;;;;;;;45.30;21.33;;;-1.90;99.90;;;;;;5010261;28;20532;-61
2024/01/18 04:16:34;;;;;;;51.83;22.10;;;-1.90;99.90;;;;;;5009957;28;20037;-61
2024/01/18 04:19:00;;;;;;;45.08;21.05;;;-1.80;99.90;;;;;;5011429;28;20497;-61
2024/01/18 04:21:26;;;;;;;45.30;20.75;;;-1.70;99.90;;;;;;5011849;28;20418;-61
2024/01/18 04:23:52;;;;;;;45.67;20.70;;;-1.60;99.90;;;;;;5011587;28;20026;-61
2024/01/18 04:26:17;;;;;;;42.30;19.60;;;-1.60;99.90;;;;;;5011699;28;20029;-61
2024/01/18 04:28:43;;;;;;;42.72;18.95;;;-1.50;99.90;;;;;;5011396;28;20064;-62
2024/01/18 04:31:09;;;;;;;43.25;19.40;;;-1.50;99.90;;;;;;5008173;28;20041;-63
2024/01/18 04:33:34;;;;;;;48.90;21.85;;;-1.40;99.90;;;;;;5007062;28;20037;-63
2024/01/18 04:36:00;;;;;;;46.35;21.42;;;-1.40;99.90;;;;;;5011540;28;20022;-61
2024/01/18 04:38:26;;;;;;;45.85;21.48;;;-1.50;99.90;;;;;;5010636;28;20088;-63
2024/01/18 04:40:52;;;;;;;50.35;21.50;;;-1.50;99.90;;;;;;5011102;28;20355;-64
2024/01/18 04:43:17;;;;;;;44.53;20.42;;;-1.40;99.90;;;;;;5009511;28;20022;-63
2024/01/18 04:45:43;;;;;;;44.83;21.52;;;-1.40;99.90;;;;;;5003425;28;20033;-62
2024/01/18 04:48:09;;;;;;;49.28;22.02;;;-1.40;99.90;;;;;;5009009;28;20030;-61
2024/01/18 04:50:35;;;;;;;43.42;20.50;;;-1.40;99.90;;;;;;5001046;28;20396;-63
2024/01/18 04:53:03;;;;;;;49.30;21.83;;;-1.40;99.90;;;;;;5007689;28;20029;-61
2024/01/18 04:55:29;;;;;;;55.00;20.98;;;-1.50;99.90;;;;;;5004941;28;20030;-62
2024/01/18 04:57:55;;;;;;;46.92;21.85;;;-1.50;99.90;;;;;;5002635;28;20026;-62
2024/01/18 05:00:21;;;;;;;50.47;22.98;;;-1.50;99.90;;;;;;5009865;28;20072;-62
2024/01/18 05:02:47;;;;;;;53.85;23.65;;;-1.40;99.90;;;;;;5008824;28;20030;-62
2024/01/18 05:05:13;;;;;;;48.78;23.05;;;-1.50;99.90;;;;;;5004980;28;20428;-62
2024/01/18 05:07:42;;;;;;;46.05;21.92;;;-1.50;99.90;;;;;;5005383;28;20054;-61
2024/01/18 05:10:09;;;;;;;49.65;22.58;;;-1.60;99.90;;;;;;5000970;28;20087;-61
2024/01/18 05:12:35;;;;;;;49.95;22.45;;;-1.50;99.90;;;;;;5008267;28;20022;-62
2024/01/18 05:15:02;;;;;;;49.10;22.13;;;-1.50;99.90;;;;;;5008068;28;20017;-62
2024/01/18 05:17:34;;;;;;;45.25;22.60;;;-1.50;99.90;;;;;;5006130;28;20054;-62
2024/01/18 05:20:04;;;;;;;46.88;22.65;;;-1.50;99.90;;;;;;5010429;28;20458;-62
2024/01/18 05:22:34;;;;;;;49.28;22.20;;;-1.50;99.90;;;;;;5002983;28;20045;-62
2024/01/18 05:25:01;;;;;;;46.38;22.38;;;-1.40;99.90;;;;;;5006646;28;20033;-62
2024/01/18 05:27:30;;;;;;;46.65;21.98;;;-1.50;99.90;;;;;;5006644;28;20030;-62
2024/01/18 05:29:56;;;;;;;47.08;22.05;;;-1.50;99.90;;;;;;5007002;28;20121;-61
2024/01/18 05:32:22;;;;;;;46.97;22.73;;;-1.50;99.90;;;;;;5000634;28;20034;-61
2024/01/18 05:34:48;;;;;;;52.15;23.55;;;-1.50;99.90;;;;;;5009495;28;20084;-62
2024/01/18 05:37:15;;;;;;;49.85;22.80;;;-1.50;99.90;;;;;;5007896;28;20026;-61
2024/01/18 05:39:40;;;;;;;50.80;21.65;;;-1.50;99.90;;;;;;5007781;28;20024;-61
2024/01/18 05:42:06;;;;;;;45.60;22.60;;;-1.40;99.90;;;;;;5009552;28;20541;-61
2024/01/18 05:44:33;;;;;;;49.90;22.70;;;-1.40;99.90;;;;;;5000624;28;20022;-61
2024/01/18 05:46:58;;;;;;;46.63;21.90;;;-1.40;99.90;;;;;;5002334;28;20045;-61
2024/01/18 05:49:24;;;;;;;51.17;22.67;;;-1.40;99.90;;;;;;4996219;28;20035;-61
2024/01/18 05:51:50;;;;;;;48.33;23.63;;;-1.40;99.90;;;;;;5001534;28;20040;-61
2024/01/18 05:54:16;;;;;;;53.72;22.73;;;-1.40;99.90;;;;;;5008628;28;20034;-61
2024/01/18 05:56:42;;;;;;;45.83;23.73;;;-1.40;99.90;;;;;;4998374;28;20034;-61
2024/01/18 05:59:08;;;;;;;50.72;23.52;;;-1.50;99.90;;;;;;5000617;28;20034;-62
2024/01/18 06:01:34;;;;;;;51.58;24.15;;;-1.60;99.90;;;;;;5004536;28;20072;-61
2024/01/18 06:03:59;;;;;;;54.47;24.63;;;-1.70;99.90;;;;;;5008969;28;20125;-61
2024/01/18 06:06:25;;;;;;;52.40;24.75;;;-1.70;99.90;;;;;;5006604;28;20105;-61
2024/01/18 06:08:51;;;;;;;50.55;24.27;;;-1.70;99.90;;;;;;5011142;28;20080;-66
2024/01/18 06:11:18;;;;;;;51.53;23.45;;;-1.80;99.90;;;;;;5011190;28;20026;-61
2024/01/18 06:13:44;;;;;;;46.05;23.40;;;-1.80;99.90;;;;;;5012078;28;20113;-61
2024/01/18 06:16:10;;;;;;;53.25;23.92;;;-1.90;99.90;;;;;;5011688;28;20126;-62
2024/01/18 06:18:37;;;;;;;53.47;23.75;;;-1.80;99.90;;;;;;5014029;28;20437;-62
2024/01/18 06:21:12;;;;;;;50.00;23.35;;;-1.90;99.90;;;;;;5014035;28;20038;-61
2024/01/18 06:23:38;;;;;;;52.45;24.38;;;-1.90;99.90;;;;;;5003149;28;20478;-61
2024/01/18 06:26:08;;;;;;;49.45;22.40;;;-2.00;99.90;;;;;;5005642;28;20049;-61
2024/01/18 06:28:34;;;;;;;;;;;-2.10;99.90;;;;;;5004430;28;20525;-61
2024/01/18 06:30:59;;;;;;;47.65;22.73;;;-2.10;99.90;;;;;;4998538;28;19916;-61
2024/01/18 06:33:26;;;;;;;52.10;22.60;;;-2.10;99.90;;;;;;5005492;28;20049;-62
2024/01/18 06:35:52;;;;;;;52.15;24.38;;;-2.10;99.90;;;;;;5012953;28;20032;-62
2024/01/18 06:38:20;;;;;;;48.10;23.80;;;-2.30;99.90;;;;;;5011578;28;20022;-62
2024/01/18 06:40:46;;;;;;;50.15;23.73;;;-2.20;99.90;;;;;;5012158;28;20029;-62
2024/01/18 06:43:11;;;;;;;53.00;23.52;;;-2.00;99.90;;;;;;5012391;28;20030;-63
2024/01/18 06:45:37;;;;;;;51.30;23.33;;;-2.00;99.90;;;;;;5009002;28;20385;-62
2024/01/18 06:48:03;;;;;;;58.08;25.05;;;-2.00;99.90;;;;;;5012974;28;20037;-62
2024/01/18 06:50:28;;;;;;;53.50;25.30;;;-2.00;99.90;;;;;;4995741;28;20057;-63
2024/01/18 06:52:54;;;;;;;47.30;23.60;;;-2.10;99.90;;;;;;5002991;28;20026;-63
2024/01/18 06:55:21;;;;;;;52.92;24.35;;;-2.30;99.90;;;;;;5007667;28;20108;-63
2024/01/18 06:57:48;;;;;;;55.40;24.98;;;-2.40;99.90;;;;;;5008221;28;20057;-63
2024/01/18 07:00:14;;;;;;;52.33;24.35;;;-2.60;99.90;;;;;;5011175;28;20029;-62
2024/01/18 07:02:40;;;;;;;54.40;25.52;;;-2.60;99.90;;;;;;5009355;28;20607;-63
2024/01/18 07:05:06;;;;;;;58.10;25.95;;;-2.70;99.90;;;;;;5012483;28;20574;-63
2024/01/18 07:07:32;;;;;;;63.60;25.55;;;-2.90;99.90;;;;;;5012479;28;20033;-63
2024/01/18 07:09:57;;;;;;;54.33;24.98;;;-3.00;99.90;;;;;;5012327;28;20105;-62
2024/01/18 07:12:24;;;;;;;52.60;23.77;;;-3.10;99.90;;;;;;5012730;28;20022;-63
2024/01/18 07:14:50;;;;;;;68.75;26.08;;;-3.20;99.90;;;;;;5008248;28;20120;-63
2024/01/18 07:17:16;;;;;;;55.53;26.25;;;-3.30;99.90;;;;;;5011592;28;20061;-63
2024/01/18 07:19:42;;;;;;;52.17;24.52;;;-3.40;99.90;;;;;;5012712;28;20089;-62
2024/01/18 07:22:08;;;;;;;52.13;24.67;;;-3.60;99.90;;;;;;5012579;28;20026;-62
2024/01/18 07:24:34;;;;;;;61.92;25.45;;;-3.70;99.90;;;;;;5012372;28;20540;-63
2024/01/18 07:26:59;;;;;;;54.65;23.75;;;-3.80;99.90;;;;;;5012327;28;20015;-62
2024/01/18 07:29:25;;;;;;;57.38;26.00;;;-3.80;99.90;;;;;;5012784;28;20313;-62
2024/01/18 07:31:51;;;;;;;59.75;25.98;;;-3.90;99.90;;;;;;5010690;28;20493;-62
2024/01/18 07:34:16;;;;;;;54.35;24.20;;;-3.90;99.90;;;;;;5010137;28;20113;-63
2024/01/18 07:36:43;;;;;;;53.55;23.88;;;-4.10;99.90;;;;;;5011874;28;20105;-63
2024/01/18 07:39:09;;;;;;;52.28;24.25;;;-4.20;99.90;;;;;;5012005;28;20025;-62
2024/01/18 07:41:35;;;;;;;55.65;25.58;;;-4.20;99.90;;;;;;5010994;28;20573;-62
2024/01/18 07:44:01;;;;;;;61.78;26.15;;;-4.30;99.90;;;;;;5011335;28;20022;-62
2024/01/18 07:46:26;;;;;;;64.68;28.13;;;-4.40;99.90;;;;;;5008657;28;20030;-62
2024/01/18 07:48:52;;;;;;;64.43;25.42;;;-4.40;99.90;;;;;;5011638;28;20092;-62
2024/01/18 07:51:18;;;;;;;64.68;26.60;;;-4.50;99.90;;;;;;5007827;28;20030;-64
2024/01/18 07:53:44;;;;;;;57.97;25.27;;;-4.60;99.90;;;;;;5011311;28;20106;-63
2024/01/18 07:56:11;;;;;;;58.42;26.60;;;-4.70;99.90;;;;;;5007359;28;20022;-63
2024/01/18 07:58:40;;;;;;;66.72;28.42;;;-4.70;99.90;;;;;;5010834;28;20018;-63
2024/01/18 08:01:06;;;;;;;61.30;25.25;;;-4.70;99.90;;;;;;5011333;28;20041;-63
2024/01/18 08:03:32;;;;;;;59.13;26.02;;;-4.60;99.90;;;;;;5010161;28;20022;-63
2024/01/18 08:05:57;;;;;;;60.67;28.60;;;-4.50;99.90;;;;;;5011819;28;20030;-63
2024/01/18 08:08:23;;;;;;;59.83;27.17;;;-4.50;99.90;;;;;;5011495;28;20036;-63
2024/01/18 08:10:49;;;;;;;60.03;27.33;;;-4.50;99.90;;;;;;5011693;28;20026;-63
2024/01/18 08:13:14;;;;;;;57.92;26.20;;;-4.60;99.90;;;;;;5011469;28;20037;-63
2024/01/18 08:15:41;;;;;;;63.38;27.40;;;-4.60;99.90;;;;;;5007137;28;20084;-63
2024/01/18 08:18:07;;;;;;;66.65;26.98;;;-4.60;99.90;;;;;;5011053;28;20066;-63
2024/01/18 08:20:32;;;;;;;59.78;28.00;;;-4.60;99.90;;;;;;5011419;28;20034;-63
2024/01/18 08:22:58;;;;;;;66.10;28.55;;;-4.60;99.90;;;;;;5011668;28;20037;-63
2024/01/18 08:25:24;;;;;;;64.63;28.90;;;-4.70;99.90;;;;;;5011486;28;20481;-63
2024/01/18 08:27:53;;;;;;;68.85;27.95;;;-4.70;99.90;;;;;;5011232;28;20327;-64
2024/01/18 08:30:19;;;;;;;64.90;27.85;;;-4.70;99.90;;;;;;5002293;28;20156;-63
2024/01/18 08:32:45;;;;;;;66.10;28.75;;;-4.70;99.90;;;;;;5009237;28;20469;-63
2024/01/18 08:35:11;;;;;;;65.95;29.48;;;-4.60;99.90;;;;;;5009508;28;20030;-63
2024/01/18 08:37:37;;;;;;;74.60;30.60;;;-4.50;99.90;;;;;;5011534;28;20018;-63
2024/01/18 08:40:04;;;;;;;64.70;28.35;;;-4.40;99.90;;;;;;5010814;28;20464;-63
2024/01/18 08:42:30;;;;;;;58.85;27.60;;;-4.20;99.90;;;;;;5011053;28;20076;-63
2024/01/18 08:44:56;;;;;;;66.28;30.05;;;-4.20;99.90;;;;;;5006746;28;20038;-63
2024/01/18 08:47:26;;;;;;;68.05;30.27;;;-4.10;99.90;;;;;;5010446;28;20058;-63
2024/01/18 08:49:51;;;;;;;;;;;-4.10;99.90;;;;;;5011015;28;20052;-64
2024/01/18 08:52:17;;;;;;;74.57;29.92;;;-4.00;99.90;;;;;;5007156;28;20420;-63
2024/01/18 08:54:43;;;;;;;64.40;29.42;;;-4.00;99.90;;;;;;5003364;28;20533;-63
2024/01/18 08:57:08;;;;;;;65.07;31.60;;;-3.90;99.90;;;;;;5009664;28;20070;-63
2024/01/18 08:59:35;;;;;;;70.82;29.60;;;-3.80;99.90;;;;;;5011012;28;20057;-63
2024/01/18 09:02:00;;;;;;;73.78;30.20;;;-3.50;99.90;;;;;;5011050;28;20018;-63
2024/01/18 09:04:26;;;;;;;69.72;31.98;;;-3.20;99.90;;;;;;5008899;28;20041;-63
2024/01/18 09:06:52;;;;;;;62.65;28.05;;;-2.90;99.90;;;;;;5010692;28;20026;-65
2024/01/18 09:09:17;;;;;;;66.40;30.08;;;-2.50;99.90;;;;;;5010381;28;20026;-62
2024/01/18 09:11:43;;;;;;;59.65;28.02;;;-2.00;99.90;;;;;;5010327;28;20064;-63
2024/01/18 09:14:08;;;;;;;51.35;25.50;;;-1.50;99.90;;;;;;5008043;28;20121;-63
2024/01/18 09:16:34;;;;;;;51.40;23.77;;;-0.80;99.90;;;;;;5007400;28;20516;-63
2024/01/18 09:19:01;;;;;;;49.17;21.65;;;-0.30;99.90;;;;;;5010346;28;20041;-61
2024/01/18 09:21:27;;;;;;;44.85;22.50;;;0.20;99.90;;;;;;5009977;28;20084;-61
2024/01/18 09:23:53;;;;;;;44.83;21.55;;;0.70;99.90;;;;;;5010090;28;20025;-61
2024/01/18 09:26:18;;;;;;;42.00;21.17;;;1.30;99.90;;;;;;5009667;28;20021;-61
2024/01/18 09:28:45;;;;;;;40.13;20.77;;;1.80;99.90;;;;;;5009912;28;20474;-61
2024/01/18 09:31:11;;;;;;;39.80;20.25;;;2.20;99.90;;;;;;5009852;28;20040;-60
2024/01/18 09:33:37;;;;;;;42.80;19.75;;;2.50;99.90;;;;;;5008211;28;20033;-61
2024/01/18 09:36:06;;;;;;;46.50;20.98;;;2.80;99.90;;;;;;5009780;28;20378;-61
2024/01/18 09:38:33;;;;;;;43.00;18.80;;;2.80;99.90;;;;;;5009854;28;20068;-61
2024/01/18 09:41:07;;;;;;;42.65;20.23;;;2.90;99.90;;;;;;5009040;28;20072;-61
2024/01/18 09:43:43;;;;;;;39.83;19.67;;;3.00;99.90;;;;;;5009381;28;20093;-61
2024/01/18 09:46:14;;;;;;;39.88;19.40;;;3.20;99.90;;;;;;5003624;28;20076;-61
2024/01/18 09:48:42;;;;;;;37.08;19.55;;;3.30;99.90;;;;;;5008816;28;20297;-61
2024/01/18 09:51:12;;;;;;;39.22;18.15;;;3.80;99.90;;;;;;5003266;28;20030;-61
2024/01/18 09:53:40;;;;;;;41.08;19.70;;;4.00;99.90;;;;;;5004454;28;20030;-61
2024/01/18 09:56:21;;;;;;;38.47;20.02;;;4.00;99.90;;;;;;5005163;28;20653;-62
2024/01/18 09:58:46;;;;;;;36.58;17.05;;;3.50;99.90;;;;;;5005898;28;20470;-60
2024/01/18 10:01:20;;;;;;;44.08;19.40;;;3.70;99.90;;;;;;5008774;28;20030;-60
2024/01/18 10:03:48;;;;;;;37.58;17.77;;;3.80;99.90;;;;;;5007472;28;20493;-63
2024/01/18 10:06:13;;;;;;;33.78;16.60;;;3.60;99.90;;;;;;5007916;28;20488;-63
2024/01/18 10:08:39;;;;;;;36.70;17.98;;;3.50;99.90;;;;;;5005154;28;20022;-62
2024/01/18 10:11:05;;;;;;;36.05;16.90;;;3.40;99.90;;;;;;5009717;28;20052;-62
2024/01/18 10:13:49;;;;;;;36.78;18.92;;;3.30;99.90;;;;;;5009369;28;20022;-63
2024/01/18 10:16:32;;;;;;;32.25;15.63;;;3.70;99.90;;;;;;5009394;28;20022;-63
2024/01/18 10:19:03;;;;;;;42.35;20.20;;;3.60;99.90;;;;;;5009258;28;20046;-62
2024/01/18 10:21:33;;;;;;;38.85;20.52;;;3.20;99.90;;;;;;5009122;28;20108;-61
2024/01/18 10:23:58;;;;;;;;;;;2.90;99.90;;;;;;5009537;28;20393;-63
2024/01/18 10:26:29;;;;;;;44.58;18.23;;;2.80;99.90;;;;;;5008914;28;19905;-62
2024/01/18 10:28:55;;;;;;;37.65;18.58;;;2.80;99.90;;;;;;5009016;28;20010;-62
2024/01/18 10:31:21;;;;;;;42.28;21.75;;;2.80;99.90;;;;;;5008922;28;20049;-61
2024/01/18 10:33:47;;;;;;;41.85;21.42;;;2.90;99.90;;;;;;5007399;28;20057;-61
2024/01/18 10:36:13;;;;;;;35.85;17.30;;;3.10;99.90;;;;;;5008673;28;20356;-62
2024/01/18 10:38:41;;;;;;;35.22;16.95;;;3.30;99.90;;;;;;5008725;28;20029;-61
2024/01/18 10:41:13;;;;;;;27.02;11.30;;;2.90;99.90;;;;;;5004959;28;20030;-62
2024/01/18 10:43:40;;;;;;;34.00;16.75;;;2.80;99.90;;;;;;5002957;28;20026;-62
2024/01/18 10:46:05;;;;;;;35.42;16.23;;;3.20;99.90;;;;;;5009021;28;20026;-62
2024/01/18 10:48:35;;;;;;;40.03;15.93;;;3.60;99.90;;;;;;5008625;28;20034;-61
2024/01/18 10:51:04;;;;;;;27.73;13.20;;;3.70;99.90;;;;;;5009037;28;20025;-61
2024/01/18 10:53:34;;;;;;;29.15;12.50;;;3.50;99.90;;;;;;5005287;28;20034;-62
2024/01/18 10:56:03;;;;;;;30.30;13.27;;;3.40;99.90;;;;;;5008380;28;20033;-61
2024/01/18 10:58:30;;;;;;;30.20;14.63;;;3.30;99.90;;;;;;5008387;28;20076;-61
2024/01/18 11:00:57;;;;;;;12.70;5.45;;;3.10;99.90;;;;;;5012376;28;20037;-61
2024/01/18 11:03:23;;;;;;;20.92;8.35;;;2.90;99.90;;;;;;5010331;28;20125;-61
2024/01/18 11:05:49;;;;;;;22.17;10.07;;;2.80;99.90;;;;;;5012661;28;20130;-61
2024/01/18 11:08:17;;;;;;;21.45;8.43;;;3.10;99.90;;;;;;5012224;28;20101;-61
2024/01/18 11:10:44;;;;;;;32.20;12.68;;;3.90;99.90;;;;;;5012106;28;20033;-61
2024/01/18 11:13:11;;;;;;;30.65;12.52;;;4.20;99.90;;;;;;5011971;28;20083;-61
2024/01/18 11:15:41;;;;;;;28.98;13.05;;;3.70;99.90;;;;;;5009072;28;20033;-61
2024/01/18 11:18:11;;;;;;;28.00;14.53;;;3.70;99.90;;;;;;5012560;28;20076;-61
2024/01/18 11:21:06;;;;;;;30.00;13.93;;;3.60;99.90;;;;;;5012141;28;20264;-60
2024/01/18 11:23:40;;;;;;;22.38;11.80;;;4.60;99.90;;;;;;5011831;28;20032;-60
2024/01/18 11:26:17;;;;;;;33.47;13.13;;;5.40;99.90;;;;;;5011681;28;20064;-61
2024/01/18 11:28:43;;;;;;;25.05;11.30;;;5.70;99.90;;;;;;5011650;28;20080;-60
2024/01/18 11:31:09;;;;;;;22.42;9.45;;;5.60;99.90;;;;;;5011555;28;20022;-60
2024/01/18 11:33:34;;;;;;;24.40;11.38;;;5.80;99.90;;;;;;5009741;28;20102;-60
2024/01/18 11:36:00;;;;;;;24.92;10.48;;;5.80;99.90;;;;;;5009802;28;20315;-61
2024/01/18 11:38:36;;;;;;;14.88;7.53;;;6.20;99.90;;;;;;5011270;28;20033;-61
2024/01/18 11:41:21;;;;;;;18.75;9.23;;;5.90;99.90;;;;;;5007319;28;20034;-61
2024/01/18 11:43:57;;;;;;;23.45;8.95;;;5.20;99.90;;;;;;5010620;28;20477;-61
2024/01/18 11:46:39;;;;;;;16.63;7.18;;;5.20;99.90;;;;;;5011234;28;20552;-61
2024/01/18 11:49:06;;;;;;;16.40;7.40;;;5.40;99.90;;;;;;5010982;28;20026;-61
2024/01/18 11:51:32;;;;;;;26.20;11.02;;;5.50;99.90;;;;;;5005802;28;20197;-61
2024/01/18 11:54:02;;;;;;;26.33;12.48;;;5.30;99.90;;;;;;5006768;28;20021;-61
2024/01/18 11:56:28;;;;;;;21.25;11.00;;;5.60;99.90;;;;;;5005522;28;20022;-61
2024/01/18 11:58:58;;;;;;;26.85;10.50;;;6.40;99.90;;;;;;5009622;28;20030;-59
2024/01/18 12:01:24;;;;;;;18.77;9.07;;;6.70;99.90;;;;;;5010318;28;20034;-59
2024/01/18 12:03:52;;;;;;;17.48;6.75;;;7.40;99.90;;;;;;5008054;28;20108;-59
2024/01/18 12:06:18;;;;;;;13.95;6.78;;;8.00;98.30;;;;;;5010540;28;20020;-58
2024/01/18 12:08:44;;;;;;;16.83;7.40;;;8.00;97.80;;;;;;5010073;28;20033;-59
2024/01/18 12:11:10;;;;;;;14.15;6.07;;;8.20;96.00;;;;;;5008686;28;20121;-58
2024/01/18 12:13:37;;;;;;;17.17;7.38;;;8.20;97.50;;;;;;5010623;28;20026;-61
2024/01/18 12:16:06;;;;;;;17.52;7.28;;;7.10;99.20;;;;;;5010948;28;20425;-61
2024/01/18 12:18:43;;;;;;;11.82;4.75;;;7.00;99.40;;;;;;5008979;28;20429;-61
2024/01/18 12:21:09;;;;;;;17.08;8.45;;;6.90;99.90;;;;;;5010345;28;20021;-61
2024/01/18 12:23:35;;;;;;;12.80;5.50;;;5.90;99.90;;;;;;5010287;28;20500;-61
2024/01/18 12:26:02;;;;;;;11.52;5.95;;;5.90;99.90;;;;;;5010516;28;20025;-61
2024/01/18 12:28:28;;;;;;;17.33;8.10;;;5.80;99.90;;;;;;5010422;28;20026;-61